Super Express — WAB6372 — position and weather

sailwx.info

Track history (hours):
 
Tides and Currents Weather Stations Pressure Air Temp Water Temp Dewpoint Dewpoint Depression Visibility Wind Speed Wind Dir Waves Ship Positions

Super Express

Owner: CATALINA CHANNEL EXPRESS, Long Beach, CA. More information available from US FCC via Universal Licensing System and Coast Guard Vessel Documentation Center.

Last reported at 2017-Oct-09 19:58 UTC. Time now 2017-Oct-19 22:01 UTC.
Position N 33°45' W 118°16'.
Warning: this ship's position is 10 days out of date.

Length 45 m; draft 1 m.

Type: High speed craft. MMSI: 366943940.

Date/timePositionNaut miles runAvg speedWind from/ knotsBaromVisibWave heightAir tempDewpointWater temp
2017-Oct-09 19:58N 33°45' W 118°16'4 8.7
2017-Oct-09 19:30N 33°41' W 118°16'1325.8
2017-Oct-09 19:00N 33°32' W 118°26'5 6.7
2017-Oct-09 18:13N 33°28' W 118°31'1025.0
2017-Oct-09 17:50N 33°35' W 118°23'619.1
2017-Oct-09 17:30N 33°39' W 118°18'5 0.3
2017-Oct-09 02:25N 33°44' W 118°17'613.8
2017-Oct-09 02:00N 33°39' W 118°18'1225.0
2017-Oct-09 01:30N 33°29' W 118°27'3 4.4
2017-Oct-09 00:47N 33°27' W 118°30'722.8
2017-Oct-09 00:29N 33°32' W 118°24'1225.2
2017-Oct-09 00:00N 33°41' W 118°16'4 7.3
2017-Oct-08 23:30N 33°45' W 118°16'2 4.2
2017-Oct-08 23:01N 33°43' W 118°16'1223.8
2017-Oct-08 22:30N 33°31' W 118°17'1120.9
2017-Oct-08 22:00N 33°21' W 118°19'0 0.0
2017-Oct-08 21:30N 33°21' W 118°19'4 8.0
2017-Oct-08 21:01N 33°25' W 118°19'1325.1
2017-Oct-08 20:31N 33°37' W 118°16'815.8
2017-Oct-08 20:00N 33°45' W 118°16'0 0.1
2017-Oct-08 19:30N 33°45' W 118°16'0 0.0
2017-Oct-08 19:00N 33°45' W 118°16'2 4.7
2017-Oct-08 18:31N 33°43' W 118°15'1325.4
2017-Oct-08 18:00N 33°30' W 118°18'1019.2
2017-Oct-08 17:30N 33°21' W 118°19'0 0.5
2017-Oct-08 17:01N 33°21' W 118°19'1223.9
2017-Oct-08 16:31N 33°33' W 118°17'12 0.6
2017-Oct-07 18:27N 33°45' W 118°16'0 0.2
2017-Oct-07 18:00N 33°45' W 118°16'612.3
2017-Oct-07 17:30N 33°39' W 118°16'1122.0
2017-Oct-07 17:01N 33°28' W 118°18'714.8
2017-Oct-07 16:30N 33°21' W 118°19'815.3
2017-Oct-07 16:01N 33°28' W 118°18'918.2
2017-Oct-07 15:31N 33°37' W 118°16'815.5
2017-Oct-07 15:00N 33°45' W 118°16'0 0.1
2017-Oct-07 14:29N 33°45' W 118°16'0 0.2
2017-Oct-07 14:00N 33°45' W 118°16'0 0.0
2017-Oct-07 01:55N 33°45' W 118°16'0 0.0
2017-Oct-07 01:30N 33°45' W 118°16'0 0.0
2017-Oct-07 01:00N 33°45' W 118°16'3 6.8
2017-Oct-07 00:30N 33°42' W 118°15'1224.9
2017-Oct-07 00:01N 33°32' W 118°24'7 7.7
2017-Oct-06 23:07N 33°27' W 118°29'215.2
2017-Oct-06 23:00N 33°28' W 118°28'1225.0
2017-Oct-06 22:30N 33°38' W 118°19'714.1
2017-Oct-06 22:00N 33°44' W 118°17'1 1.1
2017-Oct-06 21:30N 33°45' W 118°16'0 0.0
2017-Oct-06 20:58N 33°45' W 118°16'1 3.0
2017-Oct-06 20:31N 33°44' W 118°16'918.3
2017-Oct-06 20:01N 33°35' W 118°21'1121.8
2017-Oct-06 19:29N 33°28' W 118°31'0 0.0
2017-Oct-06 19:00N 33°28' W 118°31'2 2.2
2017-Oct-06 18:12N 33°27' W 118°30'317.6
2017-Oct-06 18:01N 33°29' W 118°27'1224.7
2017-Oct-06 17:31N 33°39' W 118°18'611.7
2017-Oct-06 17:00N 33°45' W 118°16'0 0.0
2017-Oct-06 16:28N 33°45' W 118°16'0 0.2
2017-Oct-06 16:00N 33°45' W 118°16'0 0.0
2017-Oct-06 15:30N 33°45' W 118°16'0 0.1
2017-Oct-06 15:00N 33°45' W 118°16'0 0.0
2017-Oct-06 14:30N 33°45' W 118°16'0 0.1
2017-Oct-06 14:00N 33°45' W 118°16'0 0.1
2017-Oct-06 13:30N 33°45' W 118°16'0 0.0
2017-Oct-06 13:00N 33°45' W 118°16'0 0.0
2017-Oct-05 03:20N 33°45' W 118°16'0 0.0
2017-Oct-05 03:00N 33°45' W 118°16'0 0.2
2017-Oct-05 02:30N 33°45' W 118°16'0 0.0
2017-Oct-05 02:00N 33°45' W 118°16'2 4.0
2017-Oct-05 01:31N 33°43' W 118°16'1224.1
2017-Oct-05 01:00N 33°31' W 118°17'1020.9
2017-Oct-05 00:30N 33°21' W 118°19'0 0.3
2017-Oct-05 00:00N 33°21' W 118°19'816.4
2017-Oct-04 23:31N 33°26' W 118°27'2 4.7
2017-Oct-04 23:00N 33°27' W 118°29'1224.8
2017-Oct-04 22:31N 33°36' W 118°20'816.7
2017-Oct-04 22:00N 33°44' W 118°17'1 1.2
2017-Oct-04 21:30N 33°45' W 118°16'0 0.0
2017-Oct-04 21:00N 33°45' W 118°16'0 0.0
2017-Oct-04 20:30N 33°45' W 118°16'0 0.0
2017-Oct-04 20:00N 33°45' W 118°16'1 1.4
2017-Oct-04 19:30N 33°44' W 118°17'714.7
2017-Oct-04 19:01N 33°37' W 118°19'1310.5
2017-Oct-04 17:48N 33°27' W 118°28'725.0
2017-Oct-04 17:30N 33°23' W 118°21'2 3.7
2017-Oct-04 17:00N 33°24' W 118°18'1121.3
2017-Oct-04 16:29N 33°35' W 118°16'918.6
2017-Oct-04 16:00N 33°44' W 118°16'1 2.0
2017-Oct-04 15:23N 33°45' W 118°16'0 0.3
2017-Oct-04 14:54N 33°45' W 118°16'0 0.1
2017-Oct-04 14:18N 33°45' W 118°16'0 0.1
2017-Oct-04 13:49N 33°45' W 118°16'0 0.1
2017-Oct-04 13:20N 33°45' W 118°16'0 0.0
2017-Oct-04 12:40N 33°45' W 118°16'0 0.0
2017-Oct-04 12:28N 33°45' W 118°16'0 0.0
2017-Oct-04 03:05N 33°45' W 118°16'0 0.2
2017-Oct-04 02:57N 33°45' W 118°16'0 0.2
2017-Oct-04 02:28N 33°45' W 118°16'0 0.0
2017-Oct-04 01:56N 33°45' W 118°16'2 3.8
2017-Oct-04 01:30N 33°43' W 118°16'2124.0
2017-Oct-04 00:39N 33°23' W 118°19'2 2.7
2017-Oct-03 23:54N 33°21' W 118°19'1611.5
2017-Oct-03 22:32N 33°37' W 118°20'124.3
2017-Oct-03 22:30N 33°38' W 118°19'714.7
2017-Oct-03 22:00N 33°45' W 118°17'0 0.6
2017-Oct-03 21:27N 33°45' W 118°16'0 0.0
2017-Oct-03 20:59N 33°45' W 118°16'0 0.0
2017-Oct-03 20:30N 33°45' W 118°16'0 0.0
2017-Oct-03 19:58N 33°45' W 118°16'0 0.0
2017-Oct-03 19:30N 33°45' W 118°16'5 9.4
2017-Oct-03 19:00N 33°40' W 118°17'1711.6
2017-Oct-03 17:35N 33°24' W 118°22'325.8
2017-Oct-03 17:28N 33°22' W 118°20'1 1.8
2017-Oct-03 16:59N 33°21' W 118°19'1423.1
2017-Oct-03 16:22N 33°35' W 118°16'821.7
2017-Oct-03 15:59N 33°43' W 118°16'1 1.8
2017-Oct-03 15:11N 33°45' W 118°16'0 0.3
2017-Oct-03 14:51N 33°45' W 118°16'0 0.0
2017-Oct-03 13:29N 33°45' W 118°16'0 0.0
2017-Oct-03 12:57N 33°45' W 118°16'0 0.0
2017-Oct-02 00:20N 33°45' W 118°16'0 0.2
2017-Oct-01 23:59N 33°45' W 118°16'0 0.0
2017-Oct-01 23:26N 33°45' W 118°16'2 4.4
2017-Oct-01 23:00N 33°43' W 118°16'2024.6
2017-Oct-01 22:10N 33°23' W 118°19'2 4.0
2017-Oct-01 21:36N 33°21' W 118°19'0 0.0
2017-Oct-01 21:30N 33°21' W 118°19'1919.0
2017-Oct-01 20:29N 33°40' W 118°16'5 9.6
2017-Oct-01 19:56N 33°45' W 118°16'0 0.0
2017-Oct-01 19:29N 33°45' W 118°16'0 0.0
2017-Oct-01 19:00N 33°45' W 118°16'0 0.0
2017-Oct-01 18:30N 33°45' W 118°16'1 2.3
2017-Oct-01 18:00N 33°44' W 118°16'917.2
2017-Oct-01 17:31N 33°36' W 118°21'1218.6
2017-Oct-01 16:52N 33°28' W 118°31'0 0.0
2017-Oct-01 16:28N 33°28' W 118°31'613.2
2017-Oct-01 16:01N 33°32' W 118°26'1224.0
2017-Oct-01 15:30N 33°41' W 118°16'4 4.9
2017-Oct-01 14:41N 33°45' W 118°16'17 0.5
2017-Sep-30 02:00N 33°31' W 118°28'4 8.1
2017-Sep-30 01:30N 33°28' W 118°31'3 6.0
2017-Sep-30 01:01N 33°30' W 118°29'1224.5
2017-Sep-30 00:31N 33°39' W 118°19'612.5
2017-Sep-30 00:00N 33°45' W 118°16'0 0.1
2017-Sep-29 23:30N 33°45' W 118°16'0 0.0
2017-Sep-29 23:01N 33°45' W 118°16'0 0.0
2017-Sep-29 22:30N 33°45' W 118°16'0 0.0
2017-Sep-29 22:01N 33°45' W 118°16'0 0.0
2017-Sep-29 21:30N 33°45' W 118°16'1 2.5
2017-Sep-29 21:00N 33°44' W 118°16'612.7
2017-Sep-29 20:30N 33°38' W 118°19'917.1
2017-Sep-29 20:00N 33°32' W 118°27'  
Track history (hours):
 
Tides and Currents Weather Stations Pressure Air Temp Water Temp Dewpoint Dewpoint Depression Visibility Wind Speed Wind Dir Waves Ship Positions

Super Express

Owner: CATALINA CHANNEL EXPRESS, Long Beach, CA. More information available from US FCC via Universal Licensing System and Coast Guard Vessel Documentation Center.

Last reported at 2017-Oct-09 19:58 UTC. Time now 2017-Oct-19 22:01 UTC.
Position N 33°45' W 118°16'.
Warning: this ship's position is 10 days out of date.

Length 45 m; draft 1 m.

Type: High speed craft. MMSI: 366943940.

Date/timePositionNaut miles runAvg speedWind from/ knotsBaromVisibWave heightAir tempDewpointWater temp
2017-Oct-09 19:58N 33°45' W 118°16'4 8.7
2017-Oct-09 19:30N 33°41' W 118°16'1325.8
2017-Oct-09 19:00N 33°32' W 118°26'5 6.7
2017-Oct-09 18:13N 33°28' W 118°31'1025.0
2017-Oct-09 17:50N 33°35' W 118°23'619.1
2017-Oct-09 17:30N 33°39' W 118°18'5 0.3
2017-Oct-09 02:25N 33°44' W 118°17'613.8
2017-Oct-09 02:00N 33°39' W 118°18'1225.0
2017-Oct-09 01:30N 33°29' W 118°27'3 4.4
2017-Oct-09 00:47N 33°27' W 118°30'722.8
2017-Oct-09 00:29N 33°32' W 118°24'1225.2
2017-Oct-09 00:00N 33°41' W 118°16'4 7.3
2017-Oct-08 23:30N 33°45' W 118°16'2 4.2
2017-Oct-08 23:01N 33°43' W 118°16'1223.8
2017-Oct-08 22:30N 33°31' W 118°17'1120.9
2017-Oct-08 22:00N 33°21' W 118°19'0 0.0
2017-Oct-08 21:30N 33°21' W 118°19'4 8.0
2017-Oct-08 21:01N 33°25' W 118°19'1325.1
2017-Oct-08 20:31N 33°37' W 118°16'815.8
2017-Oct-08 20:00N 33°45' W 118°16'0 0.1
2017-Oct-08 19:30N 33°45' W 118°16'0 0.0
2017-Oct-08 19:00N 33°45' W 118°16'2 4.7
2017-Oct-08 18:31N 33°43' W 118°15'1325.4
2017-Oct-08 18:00N 33°30' W 118°18'1019.2
2017-Oct-08 17:30N 33°21' W 118°19'0 0.5
2017-Oct-08 17:01N 33°21' W 118°19'1223.9
2017-Oct-08 16:31N 33°33' W 118°17'12 0.6
2017-Oct-07 18:27N 33°45' W 118°16'0 0.2
2017-Oct-07 18:00N 33°45' W 118°16'612.3
2017-Oct-07 17:30N 33°39' W 118°16'1122.0
2017-Oct-07 17:01N 33°28' W 118°18'714.8
2017-Oct-07 16:30N 33°21' W 118°19'815.3
2017-Oct-07 16:01N 33°28' W 118°18'918.2
2017-Oct-07 15:31N 33°37' W 118°16'815.5
2017-Oct-07 15:00N 33°45' W 118°16'0 0.1
2017-Oct-07 14:29N 33°45' W 118°16'0 0.2
2017-Oct-07 14:00N 33°45' W 118°16'0 0.0
2017-Oct-07 01:55N 33°45' W 118°16'0 0.0
2017-Oct-07 01:30N 33°45' W 118°16'0 0.0
2017-Oct-07 01:00N 33°45' W 118°16'3 6.8
2017-Oct-07 00:30N 33°42' W 118°15'1224.9
2017-Oct-07 00:01N 33°32' W 118°24'7 7.7
2017-Oct-06 23:07N 33°27' W 118°29'215.2
2017-Oct-06 23:00N 33°28' W 118°28'1225.0
2017-Oct-06 22:30N 33°38' W 118°19'714.1
2017-Oct-06 22:00N 33°44' W 118°17'1 1.1
2017-Oct-06 21:30N 33°45' W 118°16'0 0.0
2017-Oct-06 20:58N 33°45' W 118°16'1 3.0
2017-Oct-06 20:31N 33°44' W 118°16'918.3
2017-Oct-06 20:01N 33°35' W 118°21'1121.8
2017-Oct-06 19:29N 33°28' W 118°31'0 0.0
2017-Oct-06 19:00N 33°28' W 118°31'2 2.2
2017-Oct-06 18:12N 33°27' W 118°30'317.6
2017-Oct-06 18:01N 33°29' W 118°27'1224.7
2017-Oct-06 17:31N 33°39' W 118°18'611.7
2017-Oct-06 17:00N 33°45' W 118°16'0 0.0
2017-Oct-06 16:28N 33°45' W 118°16'0 0.2
2017-Oct-06 16:00N 33°45' W 118°16'0 0.0
2017-Oct-06 15:30N 33°45' W 118°16'0 0.1
2017-Oct-06 15:00N 33°45' W 118°16'0 0.0
2017-Oct-06 14:30N 33°45' W 118°16'0 0.1
2017-Oct-06 14:00N 33°45' W 118°16'0 0.1
2017-Oct-06 13:30N 33°45' W 118°16'0 0.0
2017-Oct-06 13:00N 33°45' W 118°16'0 0.0
2017-Oct-05 03:20N 33°45' W 118°16'0 0.0
2017-Oct-05 03:00N 33°45' W 118°16'0 0.2
2017-Oct-05 02:30N 33°45' W 118°16'0 0.0
2017-Oct-05 02:00N 33°45' W 118°16'2 4.0
2017-Oct-05 01:31N 33°43' W 118°16'1224.1
2017-Oct-05 01:00N 33°31' W 118°17'1020.9
2017-Oct-05 00:30N 33°21' W 118°19'0 0.3
2017-Oct-05 00:00N 33°21' W 118°19'816.4
2017-Oct-04 23:31N 33°26' W 118°27'2 4.7
2017-Oct-04 23:00N 33°27' W 118°29'1224.8
2017-Oct-04 22:31N 33°36' W 118°20'816.7
2017-Oct-04 22:00N 33°44' W 118°17'1 1.2
2017-Oct-04 21:30N 33°45' W 118°16'0 0.0
2017-Oct-04 21:00N 33°45' W 118°16'0 0.0
2017-Oct-04 20:30N 33°45' W 118°16'0 0.0
2017-Oct-04 20:00N 33°45' W 118°16'1 1.4
2017-Oct-04 19:30N 33°44' W 118°17'714.7
2017-Oct-04 19:01N 33°37' W 118°19'1310.5
2017-Oct-04 17:48N 33°27' W 118°28'725.0
2017-Oct-04 17:30N 33°23' W 118°21'2 3.7
2017-Oct-04 17:00N 33°24' W 118°18'1121.3
2017-Oct-04 16:29N 33°35' W 118°16'918.6
2017-Oct-04 16:00N 33°44' W 118°16'1 2.0
2017-Oct-04 15:23N 33°45' W 118°16'0 0.3
2017-Oct-04 14:54N 33°45' W 118°16'0 0.1
2017-Oct-04 14:18N 33°45' W 118°16'0 0.1
2017-Oct-04 13:49N 33°45' W 118°16'0 0.1
2017-Oct-04 13:20N 33°45' W 118°16'0 0.0
2017-Oct-04 12:40N 33°45' W 118°16'0 0.0
2017-Oct-04 12:28N 33°45' W 118°16'0 0.0
2017-Oct-04 03:05N 33°45' W 118°16'0 0.2
2017-Oct-04 02:57N 33°45' W 118°16'0 0.2
2017-Oct-04 02:28N 33°45' W 118°16'0 0.0
2017-Oct-04 01:56N 33°45' W 118°16'2 3.8
2017-Oct-04 01:30N 33°43' W 118°16'2124.0
2017-Oct-04 00:39N 33°23' W 118°19'2 2.7
2017-Oct-03 23:54N 33°21' W 118°19'1611.5
2017-Oct-03 22:32N 33°37' W 118°20'124.3
2017-Oct-03 22:30N 33°38' W 118°19'714.7
2017-Oct-03 22:00N 33°45' W 118°17'0 0.6
2017-Oct-03 21:27N 33°45' W 118°16'0 0.0
2017-Oct-03 20:59N 33°45' W 118°16'0 0.0
2017-Oct-03 20:30N 33°45' W 118°16'0 0.0
2017-Oct-03 19:58N 33°45' W 118°16'0 0.0
2017-Oct-03 19:30N 33°45' W 118°16'5 9.4
2017-Oct-03 19:00N 33°40' W 118°17'1711.6
2017-Oct-03 17:35N 33°24' W 118°22'325.8
2017-Oct-03 17:28N 33°22' W 118°20'1 1.8
2017-Oct-03 16:59N 33°21' W 118°19'1423.1
2017-Oct-03 16:22N 33°35' W 118°16'821.7
2017-Oct-03 15:59N 33°43' W 118°16'1 1.8
2017-Oct-03 15:11N 33°45' W 118°16'0 0.3
2017-Oct-03 14:51N 33°45' W 118°16'0 0.0
2017-Oct-03 13:29N 33°45' W 118°16'0 0.0
2017-Oct-03 12:57N 33°45' W 118°16'0 0.0
2017-Oct-02 00:20N 33°45' W 118°16'0 0.2
2017-Oct-01 23:59N 33°45' W 118°16'0 0.0
2017-Oct-01 23:26N 33°45' W 118°16'2 4.4
2017-Oct-01 23:00N 33°43' W 118°16'2024.6
2017-Oct-01 22:10N 33°23' W 118°19'2 4.0
2017-Oct-01 21:36N 33°21' W 118°19'0 0.0
2017-Oct-01 21:30N 33°21' W 118°19'1919.0
2017-Oct-01 20:29N 33°40' W 118°16'5 9.6
2017-Oct-01 19:56N 33°45' W 118°16'0 0.0
2017-Oct-01 19:29N 33°45' W 118°16'0 0.0
2017-Oct-01 19:00N 33°45' W 118°16'0 0.0
2017-Oct-01 18:30N 33°45' W 118°16'1 2.3
2017-Oct-01 18:00N 33°44' W 118°16'917.2
2017-Oct-01 17:31N 33°36' W 118°21'1218.6
2017-Oct-01 16:52N 33°28' W 118°31'0 0.0
2017-Oct-01 16:28N 33°28' W 118°31'613.2
2017-Oct-01 16:01N 33°32' W 118°26'1224.0
2017-Oct-01 15:30N 33°41' W 118°16'4 4.9
2017-Oct-01 14:41N 33°45' W 118°16'17 0.5
2017-Sep-30 02:00N 33°31' W 118°28'4 8.1
2017-Sep-30 01:30N 33°28' W 118°31'3 6.0
2017-Sep-30 01:01N 33°30' W 118°29'1224.5
2017-Sep-30 00:31N 33°39' W 118°19'612.5
2017-Sep-30 00:00N 33°45' W 118°16'0 0.1
2017-Sep-29 23:30N 33°45' W 118°16'0 0.0
2017-Sep-29 23:01N 33°45' W 118°16'0 0.0
2017-Sep-29 22:30N 33°45' W 118°16'0 0.0
2017-Sep-29 22:01N 33°45' W 118°16'0 0.0
2017-Sep-29 21:30N 33°45' W 118°16'1 2.5
2017-Sep-29 21:00N 33°44' W 118°16'612.7
2017-Sep-29 20:30N 33°38' W 118°19'917.1
2017-Sep-29 20:00N 33°32' W 118°27'  

Dump ship's entire track history